Plainview, Texas
Current Conditions -  °F | °C
As of 6:15 PM on Saturday 25 Oct 2014 (Local Time) from KPVW Reporting Station
Clear Clear  
Wind Chill: 80°   Ceiling: Unl
Heat Index: 80°   Visibility: 10mi
Dew Point: 50°   Wind: 7mph
Humidity: 35%   Direction: 190°S
Pressure: 30.09"   Gusts: NA
Location:  34.2°N, 101.69°W
Report Text: KPVW 252315Z AUTO 19006KT 10SM CLR 27/10 A3009 RMK AO2 T02670102
Loading
Personal Weather Stations






























Interactive Weather Map
Tropical Storm Tracking
New forecast layout! Learn more

10-Day Weather Forecast

Advertisements
Track Severe Weather on mobile